createdAt,value
2018-06-09T00:02:21.379Z,999.90
2018-06-09T00:05:08.164Z,997.50
2018-06-09T00:07:49.190Z,965.00
2018-06-09T00:10:27.786Z,862.77
2018-06-09T00:13:12.904Z,740.87
2018-06-09T00:15:53.632Z,585.13
2018-06-09T00:18:33.903Z,528.60
2018-06-09T00:21:15.860Z,603.20
2018-06-09T00:24:02.869Z,520.23
2018-06-09T00:26:47.382Z,580.77
2018-06-09T00:29:28.125Z,608.03
2018-06-09T00:32:08.882Z,607.07
2018-06-09T00:34:51.055Z,778.30
2018-06-09T00:37:33.170Z,799.90
2018-06-09T00:40:14.240Z,782.50
2018-06-09T00:42:58.144Z,873.90
2018-06-09T00:45:41.513Z,960.90
2018-06-09T00:48:23.222Z,999.90
2018-06-09T00:51:04.382Z,999.90
2018-06-09T00:53:46.124Z,999.90
2018-06-09T00:56:37.285Z,999.90
2018-06-09T00:59:17.001Z,999.90
2018-06-09T01:02:00.885Z,999.90
2018-06-09T01:04:41.547Z,999.90
2018-06-09T01:07:20.281Z,999.90
2018-06-09T02:51:05.419Z,612.27
2018-06-09T02:53:45.880Z,783.97
2018-06-09T02:56:27.017Z,999.80
2018-06-09T02:59:07.745Z,999.90
2018-06-09T04:25:05.539Z,249.30
2018-06-09T04:27:47.816Z,322.73
2018-06-09T04:30:27.817Z,330.77
2018-06-09T04:33:07.078Z,321.00
2018-06-09T04:35:45.342Z,296.37
2018-06-09T06:01:55.965Z,767.37
2018-06-09T06:04:37.340Z,999.90
2018-06-09T06:07:14.700Z,999.90
2018-06-09T06:09:59.462Z,999.90
2018-06-09T06:12:41.660Z,999.90
2018-06-09T06:15:24.943Z,999.90
2018-06-09T06:18:02.282Z,999.90
2018-06-09T06:20:41.104Z,999.90
2018-06-09T06:23:21.481Z,999.90
2018-06-09T06:26:03.841Z,999.90
2018-06-09T06:28:44.762Z,431.07
2018-06-09T06:31:27.879Z,999.90
2018-06-09T06:34:08.702Z,677.07
2018-06-09T06:36:49.558Z,902.73
2018-06-09T06:39:31.364Z,777.33
2018-06-09T06:42:12.298Z,793.13
2018-06-09T06:44:51.643Z,500.40
2018-06-09T06:47:33.484Z,453.27
2018-06-09T06:50:18.939Z,667.67
2018-06-09T06:53:01.937Z,795.47
2018-06-09T06:55:40.561Z,999.90
2018-06-09T06:58:27.221Z,999.90
2018-06-09T07:01:12.043Z,999.90
2018-06-09T07:03:50.240Z,837.47
2018-06-09T07:06:38.381Z,199.20
2018-06-09T07:09:18.958Z,64.00
2018-06-09T07:12:02.479Z,262.30
2018-06-09T07:14:43.438Z,448.55
2018-06-09T07:17:25.243Z,476.93
2018-06-09T07:20:10.098Z,303.60
2018-06-09T07:22:50.561Z,51.70
2018-06-09T07:25:32.662Z,71.00
2018-06-09T07:28:16.218Z,40.35
2018-06-09T07:30:55.280Z,41.42
2018-06-09T07:33:41.542Z,46.08
2018-06-09T07:36:24.343Z,60.98
2018-06-09T07:39:05.783Z,56.40
2018-06-09T07:41:44.776Z,62.50
2018-06-09T07:44:25.999Z,71.40
2018-06-09T07:47:08.040Z,95.15
2018-06-09T07:49:51.541Z,86.78
2018-06-09T07:52:33.379Z,109.27
2018-06-09T07:55:16.281Z,107.20
2018-06-09T07:58:03.440Z,135.78
2018-06-09T08:00:43.382Z,120.08
2018-06-09T08:03:22.439Z,110.42
2018-06-09T08:06:03.219Z,112.60
2018-06-09T08:08:41.163Z,131.70
2018-06-09T08:11:21.857Z,128.25
2018-06-09T08:14:05.866Z,132.12
2018-06-09T08:16:49.240Z,151.05
2018-06-09T08:19:33.905Z,169.22
2018-06-09T08:22:13.100Z,222.15
2018-06-09T08:24:53.859Z,208.25
2018-06-09T08:27:35.540Z,250.32
2018-06-09T08:30:15.362Z,252.30
2018-06-09T08:32:52.802Z,245.05
2018-06-09T08:35:31.505Z,195.90
2018-06-09T08:38:11.461Z,187.12
2018-06-09T08:40:52.816Z,198.28
2018-06-09T08:43:36.258Z,176.60
2018-06-09T08:46:17.103Z,183.65
2018-06-09T08:48:57.468Z,185.48
2018-06-09T08:51:39.120Z,204.82
2018-06-09T08:54:26.264Z,150.82
2018-06-09T08:57:06.306Z,95.00
2018-06-09T08:59:49.696Z,122.55
2018-06-09T09:02:30.777Z,125.50
2018-06-09T09:05:13.624Z,137.28
2018-06-09T09:07:57.285Z,125.80
2018-06-09T09:10:40.482Z,120.00
2018-06-09T09:13:18.924Z,128.47
2018-06-09T09:16:03.779Z,133.55
2018-06-09T09:18:42.281Z,141.40
2018-06-09T09:21:22.818Z,144.30
2018-06-09T09:24:02.234Z,127.87
2018-06-09T09:26:44.757Z,126.05
2018-06-09T09:29:25.445Z,91.17
2018-06-09T09:32:06.500Z,83.17
2018-06-09T09:34:49.141Z,95.15
2018-06-09T09:37:32.784Z,83.10
2018-06-09T09:40:11.706Z,73.85
2018-06-09T09:42:52.039Z,64.95
2018-06-09T09:45:31.200Z,70.83
2018-06-09T09:48:10.480Z,75.35
2018-06-09T09:50:48.739Z,68.33
2018-06-09T09:53:32.081Z,70.78
2018-06-09T09:56:17.385Z,77.67
2018-06-09T09:58:55.941Z,75.20
2018-06-09T10:01:38.003Z,70.92
2018-06-09T10:04:15.820Z,65.60
2018-06-09T10:07:00.675Z,63.20
2018-06-09T10:09:42.256Z,74.55
2018-06-09T10:12:27.000Z,74.30
2018-06-09T10:15:07.028Z,93.90
2018-06-09T10:17:47.782Z,94.15
2018-06-09T10:20:33.736Z,107.27
2018-06-09T10:23:17.103Z,93.62
2018-06-09T11:34:29.812Z,125.20
2018-06-09T11:37:11.734Z,130.25
2018-06-09T11:39:49.339Z,114.88
2018-06-09T11:42:36.590Z,114.45
2018-06-09T11:45:22.153Z,119.20
2018-06-09T11:48:00.194Z,112.90
2018-06-09T11:50:39.185Z,126.72
2018-06-09T11:53:19.754Z,124.75
2018-06-09T11:56:05.931Z,137.62
2018-06-09T11:58:47.829Z,147.37
2018-06-09T12:01:26.561Z,179.20
2018-06-09T12:04:11.153Z,179.35
2018-06-09T12:06:54.556Z,210.82
2018-06-09T12:09:38.433Z,248.38
2018-06-09T12:12:19.298Z,282.35
2018-06-09T12:14:55.393Z,314.72
2018-06-09T12:17:35.616Z,234.57
2018-06-09T12:20:16.356Z,165.03
2018-06-09T12:22:53.710Z,131.05
2018-06-09T12:25:36.274Z,138.75
2018-06-09T12:28:17.195Z,182.17
2018-06-09T12:30:55.748Z,282.65
2018-06-09T12:33:37.789Z,238.82
2018-06-09T12:36:17.212Z,160.85
2018-06-09T12:38:59.499Z,118.42
2018-06-09T12:41:42.191Z,137.03
2018-06-09T12:44:21.899Z,135.75
2018-06-09T12:47:03.489Z,132.30
2018-06-09T12:49:46.795Z,126.27
2018-06-09T12:52:28.835Z,120.08
2018-06-09T12:55:07.269Z,126.47
2018-06-09T12:57:45.755Z,109.45
2018-06-09T13:00:25.113Z,102.20
2018-06-09T13:03:09.734Z,77.55
2018-06-09T13:05:47.779Z,59.70
2018-06-09T13:08:26.232Z,58.80
2018-06-09T13:11:09.840Z,49.10
2018-06-09T13:13:55.154Z,57.67
2018-06-09T13:16:35.459Z,83.47
2018-06-09T13:19:15.274Z,101.65
2018-06-09T13:21:58.013Z,160.10
2018-06-09T13:24:40.853Z,158.97
2018-06-09T13:27:21.715Z,199.95
2018-06-09T13:30:03.293Z,210.63
2018-06-09T13:32:45.561Z,184.80
2018-06-09T13:35:24.433Z,86.35
2018-06-09T13:38:03.074Z,62.98
2018-06-09T13:40:48.172Z,229.28
2018-06-09T13:43:27.716Z,405.15
2018-06-09T13:46:06.396Z,512.55
2018-06-09T13:48:47.860Z,462.88
2018-06-09T13:51:27.280Z,729.67
2018-06-09T13:54:06.177Z,809.07
2018-06-09T13:56:49.909Z,997.45
2018-06-09T13:59:27.699Z,999.90
2018-06-09T14:02:07.837Z,946.73
2018-06-09T14:04:51.229Z,473.87
2018-06-09T14:07:32.570Z,766.03
2018-06-09T14:10:12.995Z,977.53
2018-06-09T14:12:56.353Z,821.77
2018-06-09T14:15:37.991Z,766.77
2018-06-09T14:18:18.579Z,289.07
2018-06-09T14:20:57.522Z,340.90
2018-06-09T14:23:38.993Z,632.43
2018-06-09T14:26:20.934Z,999.90
2018-06-09T14:28:59.272Z,999.90
2018-06-09T14:31:47.470Z,999.90
2018-06-09T14:34:30.591Z,766.63
2018-06-09T14:37:17.468Z,420.10
2018-06-09T14:39:56.621Z,447.70
2018-06-09T14:42:35.593Z,734.13
2018-06-09T14:45:18.872Z,855.43
2018-06-09T14:48:00.752Z,971.33
2018-06-09T14:50:40.335Z,945.13
2018-06-09T14:53:21.972Z,508.57
2018-06-09T14:56:02.935Z,478.70
2018-06-09T14:58:44.381Z,328.60
2018-06-09T15:01:26.478Z,236.43
2018-06-09T15:04:09.193Z,333.20
2018-06-09T15:06:47.750Z,486.47
2018-06-09T15:09:30.876Z,687.00
2018-06-09T15:12:14.053Z,629.67
2018-06-09T15:14:57.891Z,722.73
2018-06-09T15:17:39.654Z,783.63
2018-06-09T15:20:17.264Z,847.60
2018-06-09T15:23:00.970Z,945.27
2018-06-09T15:25:41.796Z,942.10
2018-06-09T15:28:25.261Z,996.60
2018-06-09T15:31:11.679Z,999.90
2018-06-09T15:33:52.674Z,999.90
2018-06-09T15:36:30.911Z,999.90
2018-06-09T15:39:12.173Z,676.90
2018-06-09T15:41:59.271Z,514.80
2018-06-09T15:44:40.934Z,999.90
2018-06-09T15:47:20.987Z,999.90
2018-06-09T15:50:01.633Z,999.90
2018-06-09T15:52:40.812Z,999.90
2018-06-09T15:55:23.136Z,999.90
2018-06-09T15:58:08.112Z,978.20
2018-06-09T16:00:47.733Z,999.90
2018-06-09T17:26:46.483Z,584.40
2018-06-09T17:29:26.119Z,999.90
2018-06-09T17:32:08.942Z,999.90
2018-06-09T17:34:53.542Z,937.43
2018-06-09T17:37:37.758Z,981.53
2018-06-09T17:40:17.139Z,999.90
2018-06-09T17:42:59.753Z,923.70
2018-06-09T17:45:38.240Z,999.90
2018-06-09T17:48:21.465Z,999.90
2018-06-09T17:51:02.861Z,999.90
2018-06-09T17:53:43.978Z,984.83
2018-06-09T17:56:27.018Z,999.90
2018-06-09T17:59:08.319Z,999.90
2018-06-09T18:01:51.857Z,999.90
2018-06-09T18:04:32.106Z,959.73
2018-06-09T18:07:13.142Z,999.90
2018-06-09T18:09:50.639Z,917.07
2018-06-09T18:12:33.882Z,915.40
2018-06-09T18:15:16.644Z,925.13
2018-06-09T18:17:58.760Z,723.97
2018-06-09T20:01:54.583Z,641.93
2018-06-09T20:04:36.238Z,212.40
2018-06-09T20:07:17.218Z,291.83
2018-06-09T20:10:00.101Z,422.70
2018-06-09T20:12:40.818Z,391.13
2018-06-09T20:15:20.817Z,425.80
2018-06-09T20:17:58.908Z,330.97
2018-06-09T20:20:40.163Z,244.60
2018-06-09T20:23:19.459Z,328.27
2018-06-09T20:25:57.918Z,462.97
2018-06-09T20:28:37.739Z,669.43
2018-06-09T20:31:21.042Z,435.03
2018-06-09T20:34:02.202Z,375.10
2018-06-09T20:36:41.001Z,427.83
2018-06-09T20:39:22.820Z,231.60
2018-06-09T20:42:00.643Z,423.33
2018-06-09T20:44:43.139Z,465.50
2018-06-09T20:47:26.579Z,318.37
2018-06-09T20:50:06.662Z,428.37
2018-06-09T20:52:48.219Z,463.70
2018-06-09T20:55:31.220Z,527.77
2018-06-09T20:58:09.058Z,310.73
2018-06-09T21:00:52.261Z,238.23
2018-06-09T21:03:32.342Z,342.17
2018-06-09T22:33:32.416Z,384.33
2018-06-09T22:36:15.282Z,368.57
2018-06-09T22:38:56.356Z,270.33
2018-06-09T22:41:38.323Z,204.87
2018-06-09T22:44:20.396Z,162.83
2018-06-09T22:46:59.660Z,240.20
